Last 7 Days

Middletown-South

Hourly Data | America/Los_Angeles
as of 5/18/21 5:27 PM PDT
Date & Time Temp (°F) RH (%) Dew Pt (°F) Wet Bulb (°F) Wind Dir (°) Wind Spd (mph) Wind Gust (mph) Leaf Wet (mins) BatVolt (V) Latest Rain (In) Daily Rain (In) Daily Min Temp (°F) Daily Max Temp (°F) Daily Max Wind (mph) Daily Leaf Wet Hrs (hrs)
5/18/21 - 1700 77.5 17 29.7 52.2 SW | 230 6.9 18.7 0.0 13.0 0.00 0.00 44.5 79.7 21.0 0.0
5/18/21 - 1600 78.2 20 33.5 53.4 SW | 231 8.0 19.7 0.0 13.0 0.00 0.00 44.5 79.7 21.0 0.0
5/18/21 - 1500 78.7 22 36.2 54.5 SW | 233 7.8 18.3 0.0 13.0 0.00 0.00 44.5 79.7 21.0 0.0
5/18/21 - 1400 78.1 22 36.5 54.4 SW | 217 6.0 18.3 0.0 13.0 0.00 0.00 44.5 79.7 21.0 0.0
5/18/21 - 1300 76.0 28 41.0 55.5 SW | 228 7.3 21.0 0.0 13.0 0.00 0.00 44.5 78.6 21.0 0.0
5/18/21 - 1200 76.0 27 39.2 54.8 SW | 219 6.7 16.2 0.0 13.0 0.00 0.00 44.5 78.6 16.2 0.0
5/18/21 - 1100 76.9 18 29.6 52.0 NNW | 334 4.6 12.6 0.0 13.0 0.00 0.00 44.5 78.6 12.6 0.0
5/18/21 - 1000 74.5 27 38.5 54.1 NNW | 330 2.3 8.1 0.0 13.0 0.00 0.00 44.5 76.6 8.6 0.0
5/18/21 - 0900 68.6 35 39.7 52.8 NW | 324 1.5 6.2 0.0 13.1 0.00 0.00 44.5 72.8 8.6 0.0
5/18/21 - 0800 58.1 49 39.1 48.6 NE | 52 0.9 4.7 0.0 13.2 0.00 0.00 44.5 64.1 8.6 0.0
5/18/21 - 0700 47.2 69 37.6 42.9 S | 191 0.8 4.9 0.0 13.1 0.00 0.00 44.5 51.9 8.6 0.0
5/18/21 - 0600 47.1 67 36.6 42.5 S | 179 2.0 8.6 0.0 12.6 0.00 0.00 45.0 51.9 8.6 0.0
5/18/21 - 0500 47.8 67 37.3 43.2 S | 175 2.2 8.4 0.0 12.7 0.00 0.00 46.4 51.9 8.4 0.0
5/18/21 - 0400 48.7 67 38.2 44.0 S | 174 2.3 6.8 0.0 12.7 0.00 0.00 47.7 51.9 7.7 0.0
5/18/21 - 0300 50.3 66 39.4 45.3 S | 183 2.4 7.7 0.0 12.7 0.00 0.00 48.3 51.9 7.7 0.0
5/18/21 - 0200 50.2 69 40.5 45.7 SSW | 198 2.0 7.7 0.0 12.7 0.00 0.00 48.3 51.9 7.7 0.0
5/18/21 - 0100 51.3 68 41.3 46.6 S | 189 1.5 4.2 0.0 12.7 0.00 0.00 40.8 78.8 22.9 2.0
5/18/21 - 0000 53.5 66 42.3 48.2 SSW | 197 1.2 3.7 0.0 12.7 0.00 0.00 40.8 78.8 22.9 2.0
5/17/21 - 2300 57.0 60 43.1 50.1 SSW | 195 2.0 4.2 0.0 12.7 0.00 0.00 40.8 78.8 22.9 2.0
5/17/21 - 2200 63.3 47 42.8 52.3 SSE | 148 1.5 4.2 0.0 12.8 0.00 0.00 40.8 78.8 22.9 2.0
5/17/21 - 2100 67.4 42 43.7 54.2 WSW | 246 3.7 13.3 0.0 12.8 0.00 0.00 40.8 78.8 22.9 2.0
5/17/21 - 2000 70.2 42 46.4 56.4 SSW | 206 5.9 18.6 0.0 12.9 0.00 0.00 40.8 78.8 22.9 2.0
5/17/21 - 1900 73.9 39 47.4 57.8 SSW | 198 4.0 13.4 0.0 13.0 0.00 0.00 40.8 78.8 22.9 2.0
5/17/21 - 1800 75.0 37 46.8 57.9 SSW | 205 5.6 16.2 0.0 13.0 0.00 0.00 40.8 78.8 22.9 2.0
5/17/21 - 1700 75.0 38 47.7 58.3 SW | 236 8.2 22.9 0.0 13.0 0.00 0.00 40.8 78.8 22.9 2.0
5/17/21 - 1600 76.5 36 47.3 58.5 SW | 231 9.0 21.7 0.0 13.0 0.00 0.00 40.8 78.8 21.7 2.0
5/17/21 - 1500 77.4 35 47.5 58.8 SW | 225 7.8 18.4 0.0 13.0 0.00 0.00 40.8 78.8 18.4 2.0
5/17/21 - 1400 77.6 38 50.0 60.1 WSW | 243 5.3 14.5 0.0 13.0 0.00 0.00 40.8 78.8 14.5 2.0
5/17/21 - 1300 76.7 37 48.6 59.2 NW | 314 2.6 9.1 0.0 13.0 0.00 0.00 40.8 78.6 9.1 2.0
5/17/21 - 1200 72.7 42 48.4 58.1 NE | 37 2.5 7.3 0.0 13.0 0.00 0.00 40.8 75.3 8.6 2.0
5/17/21 - 1100 67.5 49 47.5 56.1 NE | 48 2.1 6.1 0.0 13.0 0.00 0.00 40.8 70.6 8.6 2.0
5/17/21 - 1000 61.2 56 45.6 52.9 N | 11 2.6 6.4 0.0 13.1 0.00 0.00 40.8 64.6 8.6 2.0
5/17/21 - 0900 56.0 64 44.0 50.0 NNE | 18 1.8 5.9 0.0 13.2 0.00 0.00 40.8 58.8 8.6 2.0
5/17/21 - 0800 51.6 71 42.4 47.3 ENE | 68 1.1 3.8 0.0 13.4 0.00 0.00 40.8 54.6 8.6 2.0
5/17/21 - 0700 42.7 91 40.2 41.8 S | 177 0.5 2.2 48.3 13.2 0.00 0.00 40.8 49.6 8.6 2.0
5/17/21 - 0600 41.5 93 39.7 40.9 SW | 219 0.7 2.2 60.0 12.6 0.00 0.00 40.9 49.6 8.6 1.2
5/17/21 - 0500 42.5 92 40.4 41.8 SW | 226 1.4 2.8 9.9 12.6 0.00 0.00 41.7 49.6 8.6 0.2
5/17/21 - 0400 44.1 90 41.3 43.1 SW | 222 1.3 2.8 0.0 12.7 0.00 0.00 43.0 49.6 8.6 0.0
5/17/21 - 0300 46.7 85 42.4 45.0 S | 172 1.1 8.6 0.0 12.7 0.00 0.00 44.8 49.6 8.6 0.0
5/17/21 - 0200 48.1 81 42.5 45.7 SSE | 154 0.8 6.0 0.0 12.7 0.00 0.00 47.0 49.6 6.0 0.0
5/17/21 - 0100 50.8 73 42.4 47.0 SSE | 152 1.5 6.0 0.0 12.7 0.00 0.00 46.6 79.8 20.2 0.6
5/17/21 - 0000 53.0 69 42.9 48.2 SE | 141 1.3 5.8 0.0 12.7 0.00 0.00 46.6 79.8 20.2 0.6
5/16/21 - 2300 56.0 64 44.1 50.1 SSE | 148 1.3 4.5 0.0 12.7 0.00 0.00 46.6 79.8 20.2 0.6
5/16/21 - 2200 59.1 60 45.2 51.9 SE | 145 1.9 7.5 0.0 12.8 0.00 0.00 46.6 79.8 20.2 0.6
5/16/21 - 2100 62.2 55 45.6 53.3 S | 170 1.9 5.3 0.0 12.8 0.00 0.00 46.6 79.8 20.2 0.6
5/16/21 - 2000 69.6 43 46.2 56.0 S | 191 4.6 13.7 0.0 12.9 0.00 0.00 46.6 79.8 20.2 0.6
5/16/21 - 1900 72.9 39 46.3 57.0 SW | 224 6.4 16.6 0.0 13.1 0.00 0.00 46.6 79.8 20.2 0.6
5/16/21 - 1800 73.3 39 47.0 57.5 SW | 218 7.4 20.2 0.0 13.0 0.00 0.00 46.6 79.8 20.2 0.6
5/16/21 - 1700 73.2 41 48.1 58.0 SSW | 211 8.3 18.7 0.0 13.0 0.00 0.00 46.6 79.8 18.7 0.6
5/16/21 - 1600 74.2 42 49.7 59.1 SW | 219 7.0 18.3 0.0 13.0 0.00 0.00 46.6 79.8 18.3 0.6
5/16/21 - 1500 77.9 38 49.9 60.1 SSW | 192 4.3 18.2 0.0 12.9 0.00 0.00 46.6 79.8 18.2 0.6
5/16/21 - 1400 78.2 38 50.3 60.4 NE | 48 2.9 8.7 0.0 12.9 0.00 0.00 46.6 79.8 8.9 0.6
5/16/21 - 1300 78.0 36 48.7 59.5 ENE | 63 2.9 8.9 0.0 13.0 0.00 0.00 46.6 79.6 8.9 0.6
5/16/21 - 1200 74.1 43 49.9 59.2 NE | 49 3.1 8.3 0.0 13.0 0.00 0.00 46.6 76.6 8.3 0.6
5/16/21 - 1100 69.2 49 49.4 57.7 NE | 38 2.9 7.1 0.0 13.0 0.00 0.00 46.6 71.8 7.1 0.6
5/16/21 - 1000 64.1 58 48.9 55.8 NNE | 25 2.3 7.1 0.0 13.1 0.00 0.00 46.6 66.9 7.1 0.6
5/16/21 - 0900 59.9 65 48.0 53.7 NE | 41 1.7 4.8 0.0 13.2 0.00 0.00 46.6 62.1 4.8 0.6
5/16/21 - 0800 55.3 74 47.2 51.5 NNE | 23 0.7 3.4 0.0 13.3 0.00 0.00 46.6 59.1 3.4 0.6
5/16/21 - 0700 47.5 92 45.4 47.0 SE | 127 0.0 1.5 33.1 13.0 0.00 0.00 46.6 56.1 3.0 0.6
5/16/21 - 0600 47.6 92 45.3 47.0 SSW | 202 0.6 2.7 0.0 12.7 0.00 0.00 46.8 56.1 3.0 0.0
5/16/21 - 0500 49.0 90 46.0 48.0 SE | 144 0.5 2.6 0.0 12.7 0.00 0.00 48.0 56.1 3.0 0.0
5/16/21 - 0400 51.0 86 47.0 49.5 SSE | 147 0.1 1.9 0.0 12.7 0.00 0.00 49.9 56.1 3.0 0.0
5/16/21 - 0300 52.7 82 47.3 50.5 S | 189 0.6 3.0 0.0 12.7 0.00 0.00 51.8 56.1 3.0 0.0
5/16/21 - 0200 54.8 78 48.2 51.8 S | 189 0.7 2.6 0.0 12.7 0.00 0.00 53.4 56.1 2.6 0.0
5/16/21 - 0100 57.5 74 49.2 53.5 SSW | 206 1.0 2.5 0.0 12.7 0.00 0.00 43.6 80.4 20.4 0.0
5/16/21 - 0000 60.7 66 49.5 55.0 SSW | 193 0.7 2.7 0.0 12.7 0.00 0.00 43.6 80.4 20.4 0.0
5/15/21 - 2300 62.0 64 49.6 55.4 S | 180 1.4 5.6 0.0 12.8 0.00 0.00 43.6 80.4 20.4 0.0
5/15/21 - 2200 62.5 63 50.0 55.9 SSE | 165 1.3 4.8 0.0 12.8 0.00 0.00 43.6 80.4 20.4 0.0
5/15/21 - 2100 65.7 58 50.6 57.3 S | 173 1.2 4.9 0.0 12.8 0.00 0.00 43.6 80.4 20.4 0.0
5/15/21 - 2000 70.3 49 50.2 58.4 SSE | 147 1.6 5.6 0.0 13.0 0.00 0.00 43.6 80.4 20.4 0.0
5/15/21 - 1900 71.4 47 50.2 58.7 SW | 219 4.9 12.2 0.0 13.2 0.00 0.00 43.6 80.4 20.4 0.0
5/15/21 - 1800 72.0 46 50.0 58.8 SSW | 211 4.9 18.4 0.0 13.1 0.00 0.00 43.6 80.4 20.4 0.0
5/15/21 - 1700 72.1 45 49.4 58.5 WSW | 239 7.5 20.4 0.0 13.1 0.00 0.00 43.6 80.4 20.4 0.0
5/15/21 - 1600 77.0 37 48.6 59.3 WSW | 251 6.4 16.3 0.0 13.0 0.00 0.00 43.6 80.4 16.3 0.0
5/15/21 - 1500 78.6 32 45.8 58.3 W | 264 3.8 14.7 0.0 12.9 0.00 0.00 43.6 80.4 14.7 0.0
5/15/21 - 1400 76.5 33 45.4 57.5 ENE | 78 3.2 11.0 0.0 13.0 0.00 0.00 43.6 79.0 11.0 0.0
5/15/21 - 1300 73.3 37 45.8 56.9 E | 92 3.2 9.6 0.0 13.0 0.00 0.00 43.6 76.4 9.6 0.0
5/15/21 - 1200 70.7 41 45.8 56.2 NE | 44 4.1 9.6 0.0 13.1 0.00 0.00 43.6 72.5 9.6 0.0
5/15/21 - 1100 67.0 47 46.0 55.1 NE | 54 2.8 9.3 0.0 13.0 0.00 0.00 43.6 70.1 9.3 0.0
5/15/21 - 1000 61.6 56 45.8 53.2 N | 359 2.6 7.6 0.0 13.1 0.00 0.00 43.6 64.8 7.6 0.0
5/15/21 - 0900 57.1 64 44.9 51.0 NNE | 31 1.9 5.0 0.0 13.2 0.00 0.00 43.6 59.7 5.5 0.0
5/15/21 - 0800 53.6 69 43.8 49.0 N | 357 0.8 4.2 0.0 13.3 0.00 0.00 43.6 55.6 5.5 0.0
5/15/21 - 0700 46.0 85 41.8 44.3 E | 85 0.2 1.9 0.0 13.0 0.00 0.00 43.6 54.0 5.5 0.0
5/15/21 - 0600 45.1 87 41.6 43.8 SW | 224 0.6 2.5 0.0 12.6 0.00 0.00 44.0 54.0 5.5 0.0
5/15/21 - 0500 46.8 84 42.3 45.0 SW | 216 0.9 3.5 0.0 12.6 0.00 0.00 45.8 54.0 5.5 0.0
5/15/21 - 0400 48.7 80 42.9 46.2 SW | 226 0.9 3.1 0.0 12.6 0.00 0.00 47.6 54.0 5.5 0.0
5/15/21 - 0300 51.0 75 43.5 47.6 SSE | 162 0.6 4.2 0.0 12.6 0.00 0.00 49.8 54.0 5.5 0.0
5/15/21 - 0200 52.8 71 43.8 48.6 SSE | 157 1.3 5.5 0.0 12.7 0.00 0.00 51.9 54.0 5.5 0.0
5/15/21 - 0100 55.4 65 43.7 49.7 SE | 146 2.0 8.8 0.0 12.7 0.00 0.00 46.4 86.6 23.2 0.0
5/15/21 - 0000 61.2 50 42.5 51.4 SW | 233 4.6 14.7 0.0 12.7 0.00 0.00 46.4 86.6 23.2 0.0
5/14/21 - 2300 64.6 42 40.9 51.9 SW | 236 4.8 12.6 0.0 12.7 0.00 0.00 46.4 86.6 23.2 0.0
5/14/21 - 2200 66.3 40 41.3 52.7 SSW | 202 5.1 16.9 0.0 12.7 0.00 0.00 46.4 86.6 23.2 0.0
5/14/21 - 2100 67.3 42 43.3 53.9 WSW | 245 7.1 19.4 0.0 12.8 0.00 0.00 46.4 86.6 23.2 0.0
5/14/21 - 2000 71.8 35 42.6 55.0 SW | 232 7.1 17.6 0.0 12.9 0.00 0.00 46.4 86.6 23.2 0.0
5/14/21 - 1900 75.8 34 45.2 57.3 SW | 215 4.6 15.3 0.0 13.0 0.00 0.00 46.4 86.6 23.2 0.0
5/14/21 - 1800 77.9 33 46.8 58.6 SW | 226 6.4 17.6 0.0 13.0 0.00 0.00 46.4 86.6 23.2 0.0
5/14/21 - 1700 80.1 32 48.0 59.6 SW | 223 8.9 18.5 0.0 13.0 0.00 0.00 46.4 86.6 23.2 0.0
5/14/21 - 1600 80.1 33 48.5 59.9 SW | 231 9.4 23.2 0.0 12.9 0.00 0.00 46.4 86.6 23.2 0.0
5/14/21 - 1500 81.1 31 48.0 59.9 SW | 228 9.6 22.1 0.0 12.9 0.00 0.00 46.4 86.6 22.1 0.0
5/14/21 - 1400 81.8 27 44.5 58.4 SW | 220 10.0 20.5 0.0 12.9 0.00 0.00 46.4 86.6 20.5 0.0
5/14/21 - 1300 85.5 22 42.9 58.5 SW | 227 5.5 15.8 0.0 12.9 0.00 0.00 46.4 86.6 15.8 0.0
5/14/21 - 1200 84.8 24 44.1 58.8 ENE | 69 2.7 8.7 0.0 12.9 0.00 0.00 46.4 86.0 8.7 0.0
5/14/21 - 1100 82.0 26 43.5 58.0 NE | 48 2.8 8.0 0.0 12.9 0.00 0.00 46.4 83.6 8.0 0.0
5/14/21 - 1000 76.0 35 46.5 57.9 N | 10 1.3 5.2 0.0 13.0 0.00 0.00 46.4 80.9 5.2 0.0
5/14/21 - 0900 69.2 45 46.7 56.2 NNE | 27 1.6 4.5 0.0 13.1 0.00 0.00 46.4 71.4 4.5 0.0
5/14/21 - 0800 60.9 56 44.8 52.4 NE | 47 0.3 2.8 0.0 13.2 0.00 0.00 46.4 66.6 2.8 0.0
5/14/21 - 0700 48.9 79 42.6 46.1 SSE | 147 0.2 1.8 0.0 13.0 0.00 0.00 46.4 54.6 2.8 0.0
5/14/21 - 0600 47.1 82 41.9 44.9 SSW | 206 0.8 2.8 0.0 12.6 0.00 0.00 46.4 53.5 2.8 0.0
5/14/21 - 0500 48.6 78 42.1 45.7 SSW | 192 0.9 2.2 0.0 12.6 0.00 0.00 47.4 53.5 2.3 0.0
5/14/21 - 0400 49.6 74 41.8 46.1 S | 185 1.0 1.9 0.0 12.6 0.00 0.00 48.8 53.5 2.3 0.0
5/14/21 - 0300 51.3 69 41.4 46.7 SW | 215 1.3 2.3 0.0 12.6 0.00 0.00 50.2 53.5 2.3 0.0
5/14/21 - 0200 52.5 66 41.4 47.2 SSW | 192 1.3 2.1 0.0 12.6 0.00 0.00 51.6 53.5 2.1 0.0
5/14/21 - 0100 54.2 62 41.5 48.0 SSW | 206 1.4 2.6 0.0 12.7 0.00 0.00 44.6 89.1 22.4 0.0
5/14/21 - 0000 56.2 59 42.1 49.2 SW | 217 1.5 3.0 0.0 12.7 0.00 0.00 44.6 89.1 22.4 0.0
5/13/21 - 2300 59.4 56 43.9 51.4 SSW | 212 2.0 4.6 0.0 12.7 0.00 0.00 44.6 89.1 22.4 0.0
5/13/21 - 2200 62.6 55 46.1 53.7 SSW | 212 2.1 4.5 0.0 12.7 0.00 0.00 44.6 89.1 22.4 0.0
5/13/21 - 2100 68.9 49 48.8 57.2 SSW | 204 2.0 5.2 0.0 12.8 0.00 0.00 44.6 89.1 22.4 0.0
5/13/21 - 2000 78.2 35 48.6 59.5 S | 171 2.0 11.1 0.0 12.8 0.00 0.00 44.6 89.1 22.4 0.0
5/13/21 - 1900 80.3 33 48.7 60.0 SW | 220 6.7 16.3 0.0 13.0 0.00 0.00 44.6 89.1 22.4 0.0
5/13/21 - 1800 81.5 31 48.3 60.1 SW | 224 8.2 19.1 0.0 13.0 0.00 0.00 44.6 89.1 22.4 0.0
5/13/21 - 1700 82.4 30 47.6 59.9 SW | 223 9.3 22.4 0.0 12.9 0.00 0.00 44.6 89.1 22.4 0.0
5/13/21 - 1600 82.5 25 43.5 58.2 SW | 219 10.3 22.2 0.0 12.9 0.00 0.00 44.6 89.1 22.2 0.0
5/13/21 - 1500 83.2 23 41.8 57.6 SW | 232 8.6 19.8 0.0 12.9 0.00 0.00 44.6 89.1 19.8 0.0
5/13/21 - 1400 87.7 19 40.8 58.2 W | 275 4.6 14.7 0.0 12.8 0.00 0.00 44.6 89.1 14.7 0.0
5/13/21 - 1300 86.6 16 35.6 56.2 NE | 42 2.7 8.1 0.0 12.9 0.00 0.00 44.6 88.5 8.7 0.0
5/13/21 - 1200 84.5 17 35.4 55.7 E | 90 2.4 8.7 0.0 12.9 0.00 0.00 44.6 86.3 8.7 0.0
5/13/21 - 1100 80.1 25 40.5 56.4 ENE | 60 1.8 6.6 0.0 12.9 0.00 0.00 44.6 83.8 6.6 0.0
5/13/21 - 1000 72.8 30 39.2 53.9 NNE | 16 1.1 4.2 0.0 13.0 0.00 0.00 44.6 76.9 4.2 0.0
5/13/21 - 0900 65.7 36 38.3 51.2 NE | 35 1.1 3.6 0.0 13.1 0.00 0.00 44.6 69.6 3.6 0.0
5/13/21 - 0800 57.6 50 39.1 48.4 NE | 40 0.5 2.8 0.0 13.2 0.00 0.00 44.6 63.0 3.0 0.0
5/13/21 - 0700 47.1 69 37.5 42.8 S | 191 0.7 1.8 0.0 13.0 0.00 0.00 44.6 52.6 3.0 0.0
5/13/21 - 0600 45.4 72 36.8 41.7 S | 188 0.9 2.4 0.0 12.6 0.00 0.00 44.6 51.5 3.0 0.0
5/13/21 - 0500 46.8 67 36.3 42.2 S | 190 1.3 2.3 0.0 12.6 0.00 0.00 46.2 51.5 3.0 0.0
5/13/21 - 0400 47.5 64 35.8 42.3 SSW | 202 1.2 2.4 0.0 12.6 0.00 0.00 46.8 51.5 3.0 0.0
5/13/21 - 0300 49.2 60 36.0 43.3 SSW | 206 1.0 2.5 0.0 12.6 0.00 0.00 47.8 51.5 3.0 0.0
5/13/21 - 0200 50.8 56 35.8 43.9 SSW | 194 1.4 3.0 0.0 12.6 0.00 0.00 49.9 51.5 3.0 0.0
5/13/21 - 0100 52.8 53 36.0 45.0 SSW | 212 1.7 3.7 0.0 12.7 0.00 0.00 46.7 87.2 18.4 0.0
5/13/21 - 0000 55.2 50 36.6 46.3 SSW | 197 1.8 3.1 0.0 12.7 0.00 0.00 46.7 87.2 18.4 0.0
5/12/21 - 2300 58.6 48 38.9 48.8 SSW | 194 1.5 4.1 0.0 12.7 0.00 0.00 46.7 87.2 18.4 0.0
5/12/21 - 2200 64.7 39 39.1 51.1 S | 185 1.5 4.2 0.0 12.7 0.00 0.00 46.7 87.2 18.4 0.0
5/12/21 - 2100 73.6 28 38.5 53.8 SSW | 192 2.8 9.5 0.0 12.8 0.00 0.00 46.7 87.2 18.4 0.0
5/12/21 - 2000 78.3 21 34.5 53.8 SW | 230 6.0 16.1 0.0 12.8 0.00 0.00 46.7 87.2 18.4 0.0
5/12/21 - 1900 81.6 13 25.4 52.2 WSW | 237 6.2 15.3 0.0 12.9 0.00 0.00 46.7 87.2 18.4 0.0
5/12/21 - 1800 83.5 14 28.5 53.5 WSW | 237 5.9 15.8 0.0 12.9 0.00 0.00 46.7 87.2 18.4 0.0
5/12/21 - 1700 84.4 12 25.7 53.0 WSW | 249 6.4 17.5 0.0 12.9 0.00 0.00 46.7 87.2 18.4 0.0
5/12/21 - 1600 85.1 11 24.3 52.9 WSW | 242 7.1 15.8 0.0 12.9 0.00 0.00 46.7 87.2 18.4 0.0
5/12/21 - 1500 85.7 11 24.6 53.1 SW | 227 7.0 16.2 0.0 12.9 0.00 0.00 46.7 87.2 18.4 0.0
5/12/21 - 1400 85.2 12 27.1 53.6 SW | 235 6.6 15.6 0.0 12.9 0.00 0.00 46.7 86.9 18.4 0.0
5/12/21 - 1300 83.3 14 28.9 53.5 WSW | 246 7.5 18.4 0.0 12.9 0.00 0.00 46.7 85.1 18.4 0.0
5/12/21 - 1200 83.9 15 30.9 54.2 WSW | 243 6.2 14.5 0.0 13.0 0.00 0.00 46.7 85.1 14.5 0.0
5/12/21 - 1100 81.8 18 33.9 54.6 WNW | 300 2.9 11.2 0.0 12.9 0.00 0.00 46.7 83.9 11.2 0.0
5/12/21 - 1000 75.7 26 38.2 54.3 NNW | 348 1.6 4.4 0.0 13.0 0.00 0.00 46.7 79.5 4.4 0.0
5/12/21 - 0900 69.6 35 40.8 53.5 NE | 34 0.9 3.7 0.0 13.0 0.00 0.00 46.7 73.0 3.7 0.0
5/12/21 - 0800 60.4 48 40.4 50.1 NNE | 31 0.3 2.0 0.0 13.2 0.00 0.00 46.7 64.9 3.0 0.0
5/12/21 - 0700 48.9 66 37.8 43.9 SSW | 203 0.6 2.2 0.0 13.0 0.00 0.00 46.7 54.8 3.0 0.0
5/12/21 - 0600 47.6 67 37.3 43.0 SSW | 194 1.5 2.2 0.0 12.6 0.00 0.00 46.8 53.3 3.0 0.0
5/12/21 - 0500 48.5 64 36.9 43.3 SSW | 201 1.6 2.4 0.0 12.6 0.00 0.00 48.0 53.3 3.0 0.0
5/12/21 - 0400 49.9 59 36.0 43.6 SSW | 200 1.7 2.4 0.0 12.6 0.00 0.00 48.8 53.3 3.0 0.0
5/12/21 - 0300 50.7 56 35.5 43.8 SSW | 212 1.4 3.0 0.0 12.6 0.00 0.00 50.0 53.3 3.0 0.0
5/12/21 - 0200 52.3 52 35.4 44.5 SSW | 213 1.7 3.0 0.0 12.6 0.00 0.00 51.1 53.3 3.0 0.0
5/12/21 - 0100 53.9 48 34.6 44.9 SSW | 211 1.6 2.8 0.0 12.6 0.00 0.00 47.5 88.0 21.7 0.0
5/12/21 - 0000 56.7 44 35.0 46.3 SSW | 212 1.9 2.8 0.0 12.7 0.00 0.00 47.5 88.0 21.7 0.0
5/11/21 - 2300 59.8 43 37.1 48.5 SSW | 208 1.4 2.8 0.0 12.7 0.00 0.00 47.5 88.0 21.7 0.0
5/11/21 - 2200 67.1 32 36.1 50.8 SW | 216 1.6 4.5 0.0 12.7 0.00 0.00 47.5 88.0 21.7 0.0
5/11/21 - 2100 74.5 21 32.5 52.0 SSW | 195 2.9 10.4 0.0 12.8 0.00 0.00 47.5 88.0 21.7 0.0
5/11/21 - 2000 78.4 20 34.4 53.8 SW | 235 6.1 15.8 0.0 12.8 0.00 0.00 47.5 88.0 21.7 0.0
5/11/21 - 1900 80.9 19 34.2 54.4 SW | 226 7.1 17.5 0.0 12.9 0.00 0.00 47.5 88.0 21.7 0.0
5/11/21 - 1800 82.6 17 32.8 54.4 SW | 227 8.8 18.6 0.0 12.9 0.00 0.00 47.5 88.0 21.7 0.0
Max 87.7 93 50.6 60.4 - 10.3 23.2 60.0 13.4 0.00 0.00 53.4 89.1 23.2 2.0
Avg 65.1 49 41.9 52.1 - 3.3 9.1 0.9 12.9 0.00 - - - - -
Min 41.5 11 24.3 40.9 - 0.0 1.5 0.0 12.6 0.00 0.00 40.8 49.6 2.1 0.0
Total - - - - - - - - - 0.00 - - - - -